Time;durP1;ratioP1;P1;durP2;ratioP2;P2;SDS_P1;SDS_P2;PMS_P1;PMS_P2;Temp;Humidity;BMP_temperature;BMP_pressure;BME280_temperature;BME280_humidity;BME280_pressure;Samples;Min_cycle;Max_cycle;Signal;HPM_P1;HPM_P2
2023/06/24 00:02:15;;;;;;;4.22;3.92;;;;;;;;;;5045066;28;20056;-62
2023/06/24 00:04:41;;;;;;;3.95;3.65;;;;;;;;;;5044698;28;20132;-62
2023/06/24 00:07:07;;;;;;;3.95;3.65;;;;;;;;;;5045306;28;20064;-62
2023/06/24 00:09:33;;;;;;;3.75;3.45;;;;;;;;;;5045623;28;20103;-62
2023/06/24 00:11:59;;;;;;;3.97;3.67;;;;;;;;;;5044044;28;20053;-62
2023/06/24 00:14:27;;;;;;;3.63;3.42;;;;;;;;;;5044830;28;20081;-61
2023/06/24 00:16:54;;;;;;;3.83;3.55;;;;;;;;;;5045350;28;20146;-61
2023/06/24 00:19:21;;;;;;;3.92;3.63;;;;;;;;;;5044423;28;20124;-61
2023/06/24 00:21:47;;;;;;;4.50;4.20;;;;;;;;;;5044868;28;20246;-61
2023/06/24 00:24:13;;;;;;;3.60;3.40;;;;;;;;;;5044553;28;20045;-61
2023/06/24 00:26:39;;;;;;;3.35;3.15;;;;;;;;;;5044058;28;20138;-61
2023/06/24 00:29:05;;;;;;;3.53;3.33;;;;;;;;;;5045042;28;20044;-61
2023/06/24 00:31:31;;;;;;;3.22;3.03;;;;;;;;;;5044698;28;20044;-62
2023/06/24 00:33:57;;;;;;;3.83;3.53;;;;;;;;;;5044120;28;20040;-62
2023/06/24 00:36:23;;;;;;;3.25;2.92;;;;;;;;;;5044474;28;20044;-62
2023/06/24 00:38:49;;;;;;;3.10;2.90;;;;;;;;;;5044785;28;20497;-62
2023/06/24 00:41:18;;;;;;;2.95;2.75;;;;;;;;;;5044235;28;20048;-62
2023/06/24 00:43:44;;;;;;;2.25;2.15;;;;;;;;;;5044613;28;20574;-62
2023/06/24 00:46:11;;;;;;;2.72;2.53;;;;;;;;;;5044304;28;20053;-61
2023/06/24 00:48:37;;;;;;;2.70;2.50;;;;;;;;;;5044166;28;20041;-61
2023/06/24 00:51:03;;;;;;;2.42;2.22;;;;;;;;;;5044507;28;20041;-62
2023/06/24 00:53:29;;;;;;;1.90;1.80;;;;;;;;;;5043323;28;20049;-62
2023/06/24 00:55:56;;;;;;;2.20;2.10;;;;;;;;;;5044208;28;20598;-62
2023/06/24 00:58:23;;;;;;;2.13;2.03;;;;;;;;;;5043821;28;20405;-62
2023/06/24 01:00:57;;;;;;;2.30;2.20;;;;;;;;;;5043472;28;20449;-62
2023/06/24 01:03:23;;;;;;;2.20;2.10;;;;;;;;;;5043969;28;20106;-62
2023/06/24 01:05:49;;;;;;;2.08;1.98;;;;;;;;;;5044088;28;20133;-61
2023/06/24 01:08:15;;;;;;;2.00;1.90;;;;;;;;;;5043013;28;20076;-61
2023/06/24 01:10:42;;;;;;;1.98;1.85;;;;;;;;;;5043687;28;20049;-61
2023/06/24 01:13:08;;;;;;;2.38;2.17;;;;;;;;;;5043648;28;20460;-61
2023/06/24 01:15:35;;;;;;;2.22;2.03;;;;;;;;;;5043860;28;20243;-62
2023/06/24 01:18:08;;;;;;;2.00;1.90;;;;;;;;;;5044013;28;20177;-62
2023/06/24 01:20:45;;;;;;;2.08;1.98;;;;;;;;;;5044607;28;20493;-61
2023/06/24 01:23:30;;;;;;;2.30;2.20;;;;;;;;;;5042565;28;20314;-62
2023/06/24 01:25:56;;;;;;;1.98;1.75;;;;;;;;;;5043754;28;20052;-61
2023/06/24 01:28:24;;;;;;;1.70;1.60;;;;;;;;;;5043740;28;20041;-61
2023/06/24 01:30:53;;;;;;;2.15;2.00;;;;;;;;;;5042920;28;20601;-62
2023/06/24 01:33:25;;;;;;;2.08;1.98;;;;;;;;;;5043306;28;20057;-61
2023/06/24 01:35:51;;;;;;;2.50;2.40;;;;;;;;;;5042593;28;20124;-61
2023/06/24 01:38:27;;;;;;;2.47;2.28;;;;;;;;;;5043255;28;20049;-62
2023/06/24 01:40:54;;;;;;;1.88;1.75;;;;;;;;;;5043576;28;20052;-62
2023/06/24 01:43:22;;;;;;;1.92;1.83;;;;;;;;;;5042536;28;20432;-62
2023/06/24 01:45:53;;;;;;;2.13;2.00;;;;;;;;;;5043511;28;20049;-61
2023/06/24 01:48:23;;;;;;;1.42;1.33;;;;;;;;;;5042915;28;20488;-61
2023/06/24 01:51:09;;;;;;;1.60;1.50;;;;;;;;;;5043039;28;20040;-62
2023/06/24 01:53:38;;;;;;;1.75;1.65;;;;;;;;;;5044257;28;20580;-62
2023/06/24 01:56:06;;;;;;;2.20;2.00;;;;;;;;;;5043524;28;20056;-62
2023/06/24 01:58:34;;;;;;;1.73;1.63;;;;;;;;;;5042914;28;20145;-61
2023/06/24 02:01:01;;;;;;;1.95;1.85;;;;;;;;;;5043163;28;20041;-62
2023/06/24 02:03:27;;;;;;;1.92;1.83;;;;;;;;;;5042544;28;20164;-61
2023/06/24 02:05:54;;;;;;;1.88;1.77;;;;;;;;;;5042733;28;20040;-62
2023/06/24 02:08:20;;;;;;;2.17;2.08;;;;;;;;;;5042891;28;20112;-62
2023/06/24 02:10:47;;;;;;;2.10;2.00;;;;;;;;;;5042403;28;20068;-61
2023/06/24 02:13:13;;;;;;;2.30;2.10;;;;;;;;;;5024696;28;20770;-61
2023/06/24 02:15:40;;;;;;;2.25;2.10;;;;;;;;;;5042868;28;20405;-61
2023/06/24 02:18:07;;;;;;;2.00;1.90;;;;;;;;;;5042590;28;20519;-61
2023/06/24 02:20:33;;;;;;;2.70;2.50;;;;;;;;;;5043379;28;20047;-61
2023/06/24 02:22:59;;;;;;;2.30;2.10;;;;;;;;;;5042612;28;20492;-61
2023/06/24 02:25:26;;;;;;;2.20;2.05;;;;;;;;;;5042235;28;20408;-61
2023/06/24 02:27:53;;;;;;;2.17;2.08;;;;;;;;;;5042606;28;20049;-61
2023/06/24 02:30:21;;;;;;;2.10;1.90;;;;;;;;;;5042715;28;20116;-61
2023/06/24 02:32:47;;;;;;;1.95;1.85;;;;;;;;;;5042223;28;20036;-61
2023/06/24 02:35:13;;;;;;;2.15;1.95;;;;;;;;;;5042362;28;20044;-61
2023/06/24 02:37:39;;;;;;;2.38;2.17;;;;;;;;;;5042675;28;20051;-62
2023/06/24 02:40:07;;;;;;;2.20;2.10;;;;;;;;;;5042363;28;20049;-62
2023/06/24 02:42:33;;;;;;;3.03;2.83;;;;;;;;;;5043113;28;20578;-62
2023/06/24 02:44:59;;;;;;;2.38;2.17;;;;;;;;;;5042471;28;20509;-62
2023/06/24 02:47:25;;;;;;;2.17;2.03;;;;;;;;;;5041642;28;20049;-62
2023/06/24 02:49:52;;;;;;;2.10;2.00;;;;;;;;;;5042690;28;20400;-61
2023/06/24 02:52:18;;;;;;;2.33;2.10;;;;;;;;;;5042179;28;20088;-62
2023/06/24 02:54:45;;;;;;;1.98;1.88;;;;;;;;;;5042037;28;20204;-62
2023/06/24 02:57:11;;;;;;;1.92;1.83;;;;;;;;;;5042316;28;20111;-62
2023/06/24 02:59:37;;;;;;;1.77;1.67;;;;;;;;;;5043044;28;20041;-62
2023/06/24 03:02:05;;;;;;;2.22;2.05;;;;;;;;;;5042612;28;20439;-62
2023/06/24 03:04:31;;;;;;;2.63;2.42;;;;;;;;;;5042435;28;20104;-61
2023/06/24 03:06:59;;;;;;;2.03;1.92;;;;;;;;;;5041770;28;20353;-61
2023/06/24 03:09:27;;;;;;;2.30;2.10;;;;;;;;;;5042133;28;20091;-61
2023/06/24 03:11:53;;;;;;;2.22;2.05;;;;;;;;;;5042235;28;20402;-61
2023/06/24 03:14:19;;;;;;;1.85;1.75;;;;;;;;;;5044537;28;20416;-61
2023/06/24 03:16:45;;;;;;;2.63;2.25;;;;;;;;;;5046340;28;20045;-61
2023/06/24 03:19:11;;;;;;;2.13;2.03;;;;;;;;;;5045610;28;20493;-61
2023/06/24 03:21:37;;;;;;;2.75;2.55;;;;;;;;;;5045521;28;20060;-61
2023/06/24 03:24:03;;;;;;;1.95;1.85;;;;;;;;;;5046393;28;20041;-62
2023/06/24 03:26:36;;;;;;;2.60;2.40;;;;;;;;;;5046164;28;20119;-62
2023/06/24 03:29:03;;;;;;;2.95;2.65;;;;;;;;;;5027915;28;20049;-62
2023/06/24 03:31:29;;;;;;;2.50;2.30;;;;;;;;;;5045661;28;20045;-61
2023/06/24 03:33:55;;;;;;;2.55;2.17;;;;;;;;;;5045727;28;20043;-61
2023/06/24 03:36:21;;;;;;;2.47;2.28;;;;;;;;;;5044923;28;20073;-61
2023/06/24 03:38:47;;;;;;;3.15;2.95;;;;;;;;;;5045738;28;20033;-61
2023/06/24 03:41:13;;;;;;;2.10;1.98;;;;;;;;;;5045742;28;20444;-61
2023/06/24 03:43:41;;;;;;;2.42;2.22;;;;;;;;;;5045263;28;20107;-61
2023/06/24 03:46:08;;;;;;;2.42;2.22;;;;;;;;;;5045328;28;20049;-61
2023/06/24 03:48:34;;;;;;;2.40;2.20;;;;;;;;;;5046196;28;20053;-61
2023/06/24 03:51:00;;;;;;;2.58;2.38;;;;;;;;;;5044870;28;20069;-61
2023/06/24 03:53:26;;;;;;;3.17;2.88;;;;;;;;;;5045052;28;20448;-61
2023/06/24 03:55:52;;;;;;;2.88;2.67;;;;;;;;;;5045442;28;20052;-61
2023/06/24 03:58:20;;;;;;;2.00;1.90;;;;;;;;;;5044524;28;20044;-61
2023/06/24 04:00:49;;;;;;;2.35;2.22;;;;;;;;;;5045509;28;20049;-61
2023/06/24 04:03:15;;;;;;;2.60;2.40;;;;;;;;;;5044237;28;20102;-60
2023/06/24 04:05:41;;;;;;;2.58;2.42;;;;;;;;;;5045245;28;20048;-59
2023/06/24 04:08:07;;;;;;;2.63;2.42;;;;;;;;;;5045085;28;20049;-60
2023/06/24 04:10:34;;;;;;;2.88;2.67;;;;;;;;;;5045370;28;20080;-59
2023/06/24 04:13:00;;;;;;;2.35;2.15;;;;;;;;;;5045388;28;20049;-59
2023/06/24 04:15:26;;;;;;;2.95;2.22;;;;;;;;;;5044841;28;20064;-59
2023/06/24 04:17:52;;;;;;;2.95;2.63;;;;;;;;;;5044217;28;20037;-59
2023/06/24 04:20:18;;;;;;;2.58;2.38;;;;;;;;;;5044720;28;20044;-59
2023/06/24 04:22:44;;;;;;;2.35;2.25;;;;;;;;;;5026845;28;20048;-59
2023/06/24 04:25:10;;;;;;;2.33;2.13;;;;;;;;;;5043224;28;20436;-59
2023/06/24 04:27:36;;;;;;;2.10;2.00;;;;;;;;;;5045354;28;20063;-59
2023/06/24 04:30:03;;;;;;;2.55;2.35;;;;;;;;;;5045475;28;20036;-59
2023/06/24 04:32:29;;;;;;;2.25;2.15;;;;;;;;;;5043936;28;20055;-59
2023/06/24 04:34:55;;;;;;;2.42;2.22;;;;;;;;;;5044532;28;20405;-59
2023/06/24 04:37:21;;;;;;;2.63;2.40;;;;;;;;;;5044309;28;20048;-60
2023/06/24 04:39:48;;;;;;;2.15;2.00;;;;;;;;;;5044076;28;20045;-59
2023/06/24 04:42:15;;;;;;;2.63;2.40;;;;;;;;;;5044175;28;20057;-61
2023/06/24 04:44:41;;;;;;;2.40;2.20;;;;;;;;;;5044469;28;20683;-61
2023/06/24 04:47:07;;;;;;;2.58;2.38;;;;;;;;;;5044347;28;20771;-61
2023/06/24 04:49:33;;;;;;;3.28;2.97;;;;;;;;;;5045436;28;20090;-61
2023/06/24 04:52:02;;;;;;;3.78;3.47;;;;;;;;;;5026024;28;20055;-61
2023/06/24 04:54:28;;;;;;;3.65;3.35;;;;;;;;;;5043491;28;20044;-61
2023/06/24 04:56:55;;;;;;;3.35;3.10;;;;;;;;;;5044489;28;20123;-61
2023/06/24 04:59:24;;;;;;;3.10;2.80;;;;;;;;;;5044196;28;20045;-61
2023/06/24 05:01:50;;;;;;;3.03;2.83;;;;;;;;;;5044104;28;20452;-61
2023/06/24 05:04:16;;;;;;;2.95;2.75;;;;;;;;;;5044131;28;20087;-61
2023/06/24 05:06:42;;;;;;;2.95;2.75;;;;;;;;;;5043786;28;20080;-61
2023/06/24 05:09:13;;;;;;;3.20;3.00;;;;;;;;;;5043832;28;20114;-61
2023/06/24 05:11:39;;;;;;;3.45;3.15;;;;;;;;;;5043779;28;20077;-61
2023/06/24 05:14:05;;;;;;;3.80;3.47;;;;;;;;;;5043861;28;20546;-62
2023/06/24 05:16:31;;;;;;;3.50;3.20;;;;;;;;;;5043882;28;20039;-61
2023/06/24 05:18:57;;;;;;;3.78;3.47;;;;;;;;;;5044556;28;20040;-61
2023/06/24 05:21:23;;;;;;;3.63;3.33;;;;;;;;;;5042942;28;20489;-61
2023/06/24 05:23:49;;;;;;;3.47;3.28;;;;;;;;;;5043972;28;20047;-61
2023/06/24 05:26:15;;;;;;;3.10;2.90;;;;;;;;;;5043528;28;20051;-61
2023/06/24 05:28:41;;;;;;;3.47;3.17;;;;;;;;;;5043023;28;20041;-62
2023/06/24 05:31:07;;;;;;;3.35;2.95;;;;;;;;;;5043670;28;20501;-61
2023/06/24 05:33:33;;;;;;;3.83;3.53;;;;;;;;;;5044061;28;20136;-61
2023/06/24 05:35:59;;;;;;;3.92;3.63;;;;;;;;;;5042384;28;20041;-61
2023/06/24 05:38:25;;;;;;;3.80;3.50;;;;;;;;;;5042981;28;20045;-61
2023/06/24 05:40:51;;;;;;;4.70;4.30;;;;;;;;;;5043682;28;20401;-61
2023/06/24 05:43:17;;;;;;;3.60;3.30;;;;;;;;;;5042277;28;20041;-61
2023/06/24 05:45:43;;;;;;;3.72;3.42;;;;;;;;;;5043526;28;20056;-61
2023/06/24 05:48:09;;;;;;;3.67;3.38;;;;;;;;;;5043176;28;20045;-61
2023/06/24 05:50:35;;;;;;;3.15;2.95;;;;;;;;;;5043200;28;20041;-61
2023/06/24 05:53:01;;;;;;;4.20;3.80;;;;;;;;;;5043192;28;20041;-61
2023/06/24 05:55:27;;;;;;;2.85;2.65;;;;;;;;;;5043025;28;20491;-61
2023/06/24 05:57:53;;;;;;;3.10;2.90;;;;;;;;;;5042534;28;20055;-61
2023/06/24 06:00:19;;;;;;;2.45;2.25;;;;;;;;;;5042999;28;20040;-61
2023/06/24 06:02:45;;;;;;;2.10;2.00;;;;;;;;;;5042859;28;20044;-61
2023/06/24 06:05:11;;;;;;;3.83;3.53;;;;;;;;;;5043035;28;20045;-62
2023/06/24 06:07:39;;;;;;;3.83;3.53;;;;;;;;;;5043729;28;20048;-61
2023/06/24 06:10:06;;;;;;;6.07;3.90;;;;;;;;;;5043307;28;20464;-61
2023/06/24 06:12:32;;;;;;;5.25;4.70;;;;;;;;;;5043201;28;20061;-61
2023/06/24 06:14:58;;;;;;;5.28;4.80;;;;;;;;;;5043368;28;20405;-61
2023/06/24 06:17:24;;;;;;;3.78;3.50;;;;;;;;;;5042281;28;20044;-61
2023/06/24 06:19:50;;;;;;;3.70;3.40;;;;;;;;;;5043027;28;20141;-61
2023/06/24 06:22:17;;;;;;;4.00;3.70;;;;;;;;;;5042719;28;20040;-61
2023/06/24 06:24:43;;;;;;;3.38;3.08;;;;;;;;;;5042132;28;20412;-61
2023/06/24 06:27:11;;;;;;;2.95;2.75;;;;;;;;;;5042633;28;20037;-61
2023/06/24 06:29:36;;;;;;;2.60;2.40;;;;;;;;;;5043266;28;20041;-61
2023/06/24 06:32:03;;;;;;;3.55;3.35;;;;;;;;;;5058389;28;20159;-61
2023/06/24 06:34:29;;;;;;;3.65;3.10;;;;;;;;;;5042599;28;20045;-60
2023/06/24 06:36:55;;;;;;;3.58;3.38;;;;;;;;;;5042794;28;20049;-60
2023/06/24 06:39:21;;;;;;;4.18;3.88;;;;;;;;;;5023826;28;20435;-59
2023/06/24 06:41:47;;;;;;;3.70;3.40;;;;;;;;;;5042687;28;20361;-60
2023/06/24 06:44:13;;;;;;;2.83;2.63;;;;;;;;;;5042175;28;20045;-60
2023/06/24 06:46:39;;;;;;;3.95;3.65;;;;;;;;;;5042109;28;20098;-60
2023/06/24 06:49:05;;;;;;;3.22;3.03;;;;;;;;;;5046271;28;20052;-60
2023/06/24 06:51:31;;;;;;;3.42;3.20;;;;;;;;;;5046905;28;20432;-60
2023/06/24 06:53:57;;;;;;;3.40;3.10;;;;;;;;;;5045986;28;20087;-60
2023/06/24 06:56:24;;;;;;;3.03;2.83;;;;;;;;;;5046573;28;20072;-59
2023/06/24 06:58:50;;;;;;;2.85;2.60;;;;;;;;;;5029096;28;20097;-59
2023/06/24 07:01:16;;;;;;;2.95;2.75;;;;;;;;;;5045557;28;20131;-60
2023/06/24 07:03:42;;;;;;;3.33;3.13;;;;;;;;;;5046600;28;20045;-59
2023/06/24 07:06:08;;;;;;;3.45;3.10;;;;;;;;;;5045652;28;20044;-59
2023/06/24 07:08:35;;;;;;;3.65;3.35;;;;;;;;;;5046994;28;20080;-59
2023/06/24 07:11:01;;;;;;;2.80;2.60;;;;;;;;;;5046173;28;20056;-60
2023/06/24 07:13:27;;;;;;;5.40;4.93;;;;;;;;;;5045260;28;20048;-60
2023/06/24 07:15:53;;;;;;;4.53;4.13;;;;;;;;;;5046352;28;20040;-59
2023/06/24 07:18:19;;;;;;;5.03;4.15;;;;;;;;;;5045996;28;20053;-60
2023/06/24 07:20:45;;;;;;;3.45;3.15;;;;;;;;;;5045479;28;20049;-60
2023/06/24 07:23:11;;;;;;;2.67;2.47;;;;;;;;;;5045667;28;20045;-60
2023/06/24 07:25:37;;;;;;;2.55;2.40;;;;;;;;;;5046894;28;20045;-60
2023/06/24 07:28:03;;;;;;;4.32;4.00;;;;;;;;;;5045747;28;20731;-60
2023/06/24 07:30:29;;;;;;;2.78;2.58;;;;;;;;;;5045769;28;20388;-60
2023/06/24 07:32:55;;;;;;;2.17;1.98;;;;;;;;;;5045644;28;20049;-60
2023/06/24 07:35:21;;;;;;;2.45;2.25;;;;;;;;;;5045139;28;20132;-60
2023/06/24 07:37:49;;;;;;;1.90;1.80;;;;;;;;;;5045907;28;20123;-60
2023/06/24 07:40:14;;;;;;;3.30;3.00;;;;;;;;;;5045288;28;20045;-60
2023/06/24 07:42:41;;;;;;;2.40;2.20;;;;;;;;;;5045172;28;20049;-60
2023/06/24 07:45:07;;;;;;;1.67;1.58;;;;;;;;;;5045779;28;20044;-60
2023/06/24 07:47:33;;;;;;;2.50;1.85;;;;;;;;;;5046261;28;20091;-60
2023/06/24 07:50:00;;;;;;;1.85;1.75;;;;;;;;;;5044916;28;20037;-60
2023/06/24 07:52:26;;;;;;;3.42;3.13;;;;;;;;;;5045061;28;20481;-60
2023/06/24 07:54:52;;;;;;;3.60;3.30;;;;;;;;;;5045840;28;20098;-60
2023/06/24 07:57:18;;;;;;;2.33;2.13;;;;;;;;;;5044415;28;20056;-60
2023/06/24 07:59:44;;;;;;;3.50;3.20;;;;;;;;;;5044462;28;20037;-60
2023/06/24 08:02:10;;;;;;;3.80;3.60;;;;;;;;;;5045112;28;20032;-60
2023/06/24 08:04:36;;;;;;;3.40;3.10;;;;;;;;;;5045360;28;20127;-60
2023/06/24 08:07:03;;;;;;;2.80;2.60;;;;;;;;;;5046018;28;20046;-60
2023/06/24 08:09:29;;;;;;;2.78;2.58;;;;;;;;;;5044364;28;20123;-60
2023/06/24 08:11:55;;;;;;;2.00;1.90;;;;;;;;;;5045222;28;20699;-60
2023/06/24 08:14:21;;;;;;;2.47;2.17;;;;;;;;;;5045223;28;20413;-60
2023/06/24 08:16:47;;;;;;;2.28;2.17;;;;;;;;;;5044527;28;20041;-60
2023/06/24 08:19:14;;;;;;;2.03;1.92;;;;;;;;;;5044593;28;20468;-60
2023/06/24 08:21:40;;;;;;;3.42;3.13;;;;;;;;;;5045151;28;20041;-60
2023/06/24 08:24:07;;;;;;;2.40;2.20;;;;;;;;;;5044993;28;20044;-60
2023/06/24 08:26:33;;;;;;;2.58;2.38;;;;;;;;;;5045762;28;20040;-60
2023/06/24 08:28:59;;;;;;;3.03;2.70;;;;;;;;;;5044997;28;20120;-60
2023/06/24 08:31:25;;;;;;;2.70;2.50;;;;;;;;;;5043647;28;20527;-60
2023/06/24 08:33:55;;;;;;;2.42;2.22;;;;;;;;;;5044851;28;20077;-60
2023/06/24 08:36:24;;;;;;;3.50;3.20;;;;;;;;;;5044549;28;20065;-60
2023/06/24 08:38:50;;;;;;;3.65;3.35;;;;;;;;;;5043712;28;20124;-60
2023/06/24 08:41:16;;;;;;;3.13;2.83;;;;;;;;;;5044375;28;20398;-60
2023/06/24 08:43:42;;;;;;;3.70;2.75;;;;;;;;;;5044637;28;20041;-60
2023/06/24 08:46:09;;;;;;;3.30;3.10;;;;;;;;;;5043425;28;20386;-60
2023/06/24 08:48:40;;;;;;;4.90;3.00;;;;;;;;;;5045134;28;20057;-60
2023/06/24 08:51:08;;;;;;;3.53;2.80;;;;;;;;;;5044894;28;20059;-60
2023/06/24 08:53:34;;;;;;;2.50;2.33;;;;;;;;;;5044212;28;20578;-60
2023/06/24 08:56:01;;;;;;;4.93;3.58;;;;;;;;;;5044352;28;20045;-60
2023/06/24 08:58:27;;;;;;;5.65;4.93;;;;;;;;;;5044209;28;20858;-60
2023/06/24 09:00:53;;;;;;;4.32;3.60;;;;;;;;;;5043728;28;20037;-59
2023/06/24 09:03:19;;;;;;;3.85;3.55;;;;;;;;;;5044261;28;20056;-60
2023/06/24 09:05:45;;;;;;;3.20;2.90;;;;;;;;;;5043587;28;20053;-60
2023/06/24 09:08:11;;;;;;;2.72;2.53;;;;;;;;;;5044065;28;20051;-60
2023/06/24 09:10:38;;;;;;;3.30;3.10;;;;;;;;;;5044111;28;20169;-60
2023/06/24 09:13:05;;;;;;;3.33;3.03;;;;;;;;;;5043789;28;20056;-60
2023/06/24 09:15:32;;;;;;;3.10;2.88;;;;;;;;;;5043949;28;20037;-60
2023/06/24 09:18:00;;;;;;;3.08;2.50;;;;;;;;;;5043970;28;20067;-60
2023/06/24 09:20:26;;;;;;;3.72;2.58;;;;;;;;;;5043094;28;20040;-60
2023/06/24 09:22:52;;;;;;;2.80;2.60;;;;;;;;;;5044069;28;20051;-60
2023/06/24 09:25:19;;;;;;;4.78;4.38;;;;;;;;;;5043748;28;20363;-61
2023/06/24 09:27:51;;;;;;;3.92;3.45;;;;;;;;;;5043219;28;20219;-60
2023/06/24 09:30:21;;;;;;;4.25;3.90;;;;;;;;;;5043527;28;20049;-60
2023/06/24 09:32:50;;;;;;;2.83;2.63;;;;;;;;;;5044144;28;20041;-60
2023/06/24 09:35:21;;;;;;;3.10;2.85;;;;;;;;;;5042795;28;20128;-60
2023/06/24 09:38:05;;;;;;;4.85;4.45;;;;;;;;;;5043798;28;20125;-60
2023/06/24 09:40:36;;;;;;;4.03;3.72;;;;;;;;;;5043663;28;20435;-61
2023/06/24 09:43:03;;;;;;;;;;;;;;;;;;5058903;28;20450;-61
2023/06/24 09:45:30;;;;;;;3.08;2.88;;;;;;;;;;5043054;28;20281;-60
2023/06/24 09:47:57;;;;;;;3.97;3.58;;;;;;;;;;5042870;28;20521;-60
2023/06/24 09:50:24;;;;;;;3.28;3.00;;;;;;;;;;5043522;28;20056;-60
2023/06/24 09:52:50;;;;;;;3.83;2.42;;;;;;;;;;5043307;28;20090;-60
2023/06/24 09:55:17;;;;;;;3.30;2.45;;;;;;;;;;5042339;28;20378;-60
2023/06/24 09:57:45;;;;;;;2.60;2.40;;;;;;;;;;5043643;28;20102;-60
2023/06/24 10:00:12;;;;;;;3.92;3.58;;;;;;;;;;5043190;28;20048;-60
2023/06/24 10:02:38;;;;;;;3.40;3.10;;;;;;;;;;5042662;28;20501;-60
2023/06/24 10:05:04;;;;;;;3.20;2.88;;;;;;;;;;5043716;28;20276;-60
2023/06/24 10:07:32;;;;;;;2.40;2.20;;;;;;;;;;5042736;28;20451;-60
2023/06/24 10:09:58;;;;;;;2.60;2.40;;;;;;;;;;5042465;28;20068;-60
2023/06/24 10:12:26;;;;;;;3.28;2.97;;;;;;;;;;5042542;28;20053;-60
2023/06/24 10:14:52;;;;;;;2.25;2.10;;;;;;;;;;5043117;28;20412;-60
2023/06/24 10:17:18;;;;;;;2.72;2.53;;;;;;;;;;5042006;28;20037;-60
2023/06/24 10:19:45;;;;;;;2.53;2.33;;;;;;;;;;5043437;28;20041;-61
2023/06/24 10:22:11;;;;;;;3.65;2.70;;;;;;;;;;5042316;28;20439;-61
2023/06/24 10:24:42;;;;;;;2.50;2.30;;;;;;;;;;5042764;28;20052;-60
2023/06/24 10:27:08;;;;;;;2.70;2.50;;;;;;;;;;5042994;28;20048;-60
2023/06/24 10:29:34;;;;;;;3.28;2.97;;;;;;;;;;5043606;28;20048;-60
2023/06/24 10:32:01;;;;;;;2.72;2.53;;;;;;;;;;5042174;28;20048;-60
2023/06/24 10:34:28;;;;;;;2.58;2.38;;;;;;;;;;5042747;28;20552;-60
2023/06/24 10:37:01;;;;;;;2.63;2.40;;;;;;;;;;5042835;28;20468;-61
2023/06/24 10:40:00;;;;;;;2.03;1.92;;;;;;;;;;5042520;28;20234;-60
2023/06/24 10:42:29;;;;;;;1.98;1.88;;;;;;;;;;4998593;28;20472;-60
2023/06/24 10:45:02;;;;;;;3.30;3.00;;;;;;;;;;5042159;28;20047;-60
2023/06/24 10:47:28;;;;;;;4.40;2.90;;;;;;;;;;5042536;28;21123;-60
2023/06/24 10:49:54;;;;;;;3.75;3.10;;;;;;;;;;5042573;28;20041;-60
2023/06/24 10:52:21;;;;;;;2.67;2.47;;;;;;;;;;5041785;28;20051;-60
2023/06/24 10:54:47;;;;;;;3.53;2.58;;;;;;;;;;5042665;28;20037;-60
2023/06/24 10:57:14;;;;;;;3.17;2.45;;;;;;;;;;5042263;28;20055;-60
2023/06/24 10:59:44;;;;;;;2.10;2.00;;;;;;;;;;5042341;28;20172;-60
2023/06/24 11:02:10;;;;;;;2.45;2.25;;;;;;;;;;5042607;28;20044;-60
2023/06/24 11:04:46;;;;;;;2.20;1.98;;;;;;;;;;5043072;28;20424;-60
2023/06/24 11:07:12;;;;;;;1.85;1.75;;;;;;;;;;5041689;28;20053;-60
2023/06/24 11:09:38;;;;;;;1.60;1.50;;;;;;;;;;5043049;28;20052;-60
2023/06/24 11:12:05;;;;;;;2.78;2.13;;;;;;;;;;5043119;28;20049;-60
2023/06/24 11:14:33;;;;;;;3.05;2.75;;;;;;;;;;5041558;28;20044;-60
2023/06/24 11:17:01;;;;;;;2.03;1.85;;;;;;;;;;5042511;28;20045;-60
2023/06/24 11:19:27;;;;;;;2.22;2.13;;;;;;;;;;5041788;28;20045;-61
2023/06/24 11:21:53;;;;;;;2.30;2.10;;;;;;;;;;5042858;28;20052;-61
2023/06/24 11:24:19;;;;;;;1.98;1.67;;;;;;;;;;5042121;28;20347;-60
2023/06/24 11:26:46;;;;;;;2.30;2.10;;;;;;;;;;5041745;28;20092;-60
2023/06/24 11:29:12;;;;;;;1.77;1.67;;;;;;;;;;5042163;28;20045;-60
2023/06/24 11:31:38;;;;;;;1.83;1.73;;;;;;;;;;5042553;28;20064;-60
2023/06/24 11:34:05;;;;;;;1.90;1.80;;;;;;;;;;5042012;28;20405;-60
2023/06/24 11:36:31;;;;;;;1.60;1.50;;;;;;;;;;5045132;28;20176;-61
2023/06/24 11:38:57;;;;;;;2.45;1.50;;;;;;;;;;5045803;28;21009;-60
2023/06/24 11:41:25;;;;;;;2.17;1.90;;;;;;;;;;5044696;28;20036;-60
2023/06/24 11:43:51;;;;;;;2.17;1.95;;;;;;;;;;5045803;28;20052;-61
2023/06/24 11:46:21;;;;;;;2.22;2.08;;;;;;;;;;5045536;28;20535;-60
2023/06/24 11:48:47;;;;;;;3.28;2.20;;;;;;;;;;5045040;28;20033;-60
2023/06/24 11:51:14;;;;;;;2.05;1.75;;;;;;;;;;5045305;28;20051;-60
2023/06/24 11:53:46;;;;;;;2.28;2.00;;;;;;;;;;5045590;28;20052;-60
2023/06/24 11:56:12;;;;;;;2.13;2.00;;;;;;;;;;5044776;28;20060;-60
2023/06/24 11:58:39;;;;;;;1.70;1.60;;;;;;;;;;5027919;28;20044;-61
2023/06/24 12:01:08;;;;;;;1.98;1.88;;;;;;;;;;5046152;28;20063;-61
2023/06/24 12:03:34;;;;;;;8.43;2.28;;;;;;;;;;5045447;28;20052;-61
2023/06/24 12:06:00;;;;;;;1.95;1.85;;;;;;;;;;5045373;28;20045;-61
2023/06/24 12:08:26;;;;;;;1.95;1.85;;;;;;;;;;5045117;28;20045;-61
2023/06/24 12:10:53;;;;;;;2.05;1.95;;;;;;;;;;5044639;28;20140;-61
2023/06/24 12:13:19;;;;;;;1.90;1.80;;;;;;;;;;5044992;28;20079;-61
2023/06/24 12:15:45;;;;;;;1.75;1.65;;;;;;;;;;5044642;28;20037;-61
2023/06/24 12:18:14;;;;;;;1.77;1.67;;;;;;;;;;5045055;28;20087;-61
2023/06/24 12:20:40;;;;;;;1.60;1.50;;;;;;;;;;5045195;28;20056;-61
2023/06/24 12:23:06;;;;;;;1.55;1.45;;;;;;;;;;5044923;28;20116;-60
2023/06/24 12:25:32;;;;;;;1.30;1.20;;;;;;;;;;5044987;28;20041;-60
2023/06/24 12:28:01;;;;;;;1.17;1.08;;;;;;;;;;5044796;28;20080;-60
2023/06/24 12:30:28;;;;;;;1.30;1.20;;;;;;;;;;5044117;28;20060;-61
2023/06/24 12:32:54;;;;;;;1.30;1.20;;;;;;;;;;5045273;28;20048;-63
2023/06/24 12:35:20;;;;;;;1.70;1.60;;;;;;;;;;5044830;28;20801;-63
2023/06/24 12:37:47;;;;;;;0.82;0.82;;;;;;;;;;5044588;28;20451;-63
2023/06/24 12:40:13;;;;;;;1.08;1.02;;;;;;;;;;5044920;28;20045;-63
2023/06/24 12:42:39;;;;;;;1.30;1.02;;;;;;;;;;5044816;28;20051;-61
2023/06/24 12:45:06;;;;;;;1.45;1.35;;;;;;;;;;5044449;28;20041;-61
2023/06/24 12:47:32;;;;;;;1.98;1.10;;;;;;;;;;5044258;28;20504;-61
2023/06/24 12:49:58;;;;;;;1.52;1.40;;;;;;;;;;5044764;28;20400;-61
2023/06/24 12:52:24;;;;;;;1.50;1.40;;;;;;;;;;5043778;28;20309;-61
2023/06/24 12:54:50;;;;;;;1.50;1.40;;;;;;;;;;5044285;28;20052;-63
2023/06/24 12:57:16;;;;;;;1.60;1.50;;;;;;;;;;5044288;28;20037;-61
2023/06/24 12:59:43;;;;;;;1.52;1.42;;;;;;;;;;5043963;28;20045;-60
2023/06/24 13:02:09;;;;;;;1.23;1.23;;;;;;;;;;5044135;28;20049;-60
2023/06/24 13:04:35;;;;;;;1.17;1.08;;;;;;;;;;5044848;28;20047;-63
2023/06/24 13:07:01;;;;;;;1.05;1.05;;;;;;;;;;5043532;28;20167;-61
2023/06/24 13:09:27;;;;;;;0.60;0.60;;;;;;;;;;5043857;28;20132;-61
2023/06/24 13:11:53;;;;;;;0.70;0.70;;;;;;;;;;5043275;28;20095;-61
2023/06/24 13:14:19;;;;;;;1.42;1.20;;;;;;;;;;5044072;28;20096;-61
2023/06/24 13:16:45;;;;;;;1.38;1.27;;;;;;;;;;5043892;28;20037;-61
2023/06/24 13:19:11;;;;;;;1.38;0.77;;;;;;;;;;5043192;28;20045;-61
2023/06/24 13:21:37;;;;;;;0.90;0.90;;;;;;;;;;5044560;28;20301;-61
2023/06/24 13:24:03;;;;;;;1.20;0.60;;;;;;;;;;5044275;28;20124;-61
2023/06/24 13:26:29;;;;;;;0.90;0.90;;;;;;;;;;5042671;28;20485;-61
2023/06/24 13:28:55;;;;;;;0.50;0.50;;;;;;;;;;5043737;28;20559;-61
2023/06/24 13:31:21;;;;;;;0.70;0.65;;;;;;;;;;5043444;28;20083;-61
2023/06/24 13:33:47;;;;;;;0.95;0.90;;;;;;;;;;5043143;28;20040;-61
2023/06/24 13:36:28;;;;;;;0.93;0.93;;;;;;;;;;5043173;28;20497;-61
2023/06/24 13:38:54;;;;;;;0.95;0.95;;;;;;;;;;5043432;28;20055;-61
2023/06/24 13:41:20;;;;;;;0.70;0.70;;;;;;;;;;5042693;28;20543;-61
2023/06/24 13:43:46;;;;;;;0.77;0.77;;;;;;;;;;5043591;28;20119;-60
2023/06/24 13:46:12;;;;;;;0.85;0.85;;;;;;;;;;5043072;28;20052;-61
2023/06/24 13:48:38;;;;;;;1.02;0.70;;;;;;;;;;5043468;28;20052;-61
2023/06/24 13:51:05;;;;;;;0.80;0.80;;;;;;;;;;5044035;28;20041;-61
2023/06/24 13:53:31;;;;;;;0.60;0.60;;;;;;;;;;5043433;28;20098;-61
2023/06/24 13:55:57;;;;;;;0.40;0.40;;;;;;;;;;5042677;28;20052;-61
2023/06/24 13:58:24;;;;;;;0.75;0.70;;;;;;;;;;5042267;28;20512;-61
2023/06/24 14:00:50;;;;;;;1.38;0.95;;;;;;;;;;5043192;28;20543;-61
2023/06/24 14:03:16;;;;;;;0.80;0.80;;;;;;;;;;5041996;28;20087;-63
2023/06/24 14:05:42;;;;;;;0.70;0.70;;;;;;;;;;5043034;28;20079;-63
2023/06/24 14:08:08;;;;;;;0.70;0.70;;;;;;;;;;5042732;28;20064;-63
2023/06/24 14:10:34;;;;;;;0.68;0.68;;;;;;;;;;5043624;28;20083;-63
2023/06/24 14:13:00;;;;;;;2.05;1.13;;;;;;;;;;5043102;28;20048;-61
2023/06/24 14:15:26;;;;;;;0.80;0.70;;;;;;;;;;5042105;28;20052;-61
2023/06/24 14:17:52;;;;;;;1.02;0.93;;;;;;;;;;5042901;28;20083;-61
2023/06/24 14:20:18;;;;;;;1.48;0.98;;;;;;;;;;5042499;28;20086;-61
2023/06/24 14:22:44;;;;;;;0.80;0.80;;;;;;;;;;5024559;28;20504;-61
2023/06/24 14:25:10;;;;;;;1.95;1.20;;;;;;;;;;5042783;28;20660;-61
2023/06/24 14:27:37;;;;;;;1.90;1.20;;;;;;;;;;5043314;28;20056;-61
2023/06/24 14:30:03;;;;;;;1.05;1.05;;;;;;;;;;5042303;28;20569;-61
2023/06/24 14:32:29;;;;;;;0.80;0.80;;;;;;;;;;5042426;28;20489;-61
2023/06/24 14:34:55;;;;;;;1.00;1.00;;;;;;;;;;5043048;28;20187;-61
2023/06/24 14:37:21;;;;;;;0.90;0.90;;;;;;;;;;5041866;28;20041;-61
2023/06/24 14:39:47;;;;;;;1.20;0.90;;;;;;;;;;5042895;28;20044;-61
2023/06/24 14:42:13;;;;;;;1.70;1.38;;;;;;;;;;5042405;28;20408;-61